sensor_id;sensor_type;location;lat;lon;timestamp;P1;durP1;ratioP1;P2;durP2;ratioP2
14139;SDS011;7150;53.514;9.988;2024-02-21T00:00:12;22.17;;;10.60;;
14139;SDS011;7150;53.514;9.988;2024-02-21T00:02:38;21.27;;;11.23;;
14139;SDS011;7150;53.514;9.988;2024-02-21T00:05:03;23.77;;;12.07;;
14139;SDS011;7150;53.514;9.988;2024-02-21T00:07:29;20.03;;;10.67;;
14139;SDS011;7150;53.514;9.988;2024-02-21T00:09:55;20.67;;;11.63;;
14139;SDS011;7150;53.514;9.988;2024-02-21T00:12:20;23.10;;;12.57;;
14139;SDS011;7150;53.514;9.988;2024-02-21T00:14:46;23.43;;;11.67;;
14139;SDS011;7150;53.514;9.988;2024-02-21T00:17:11;28.67;;;12.83;;
14139;SDS011;7150;53.514;9.988;2024-02-21T00:19:37;24.07;;;12.37;;
14139;SDS011;7150;53.514;9.988;2024-02-21T00:22:02;26.63;;;13.67;;
14139;SDS011;7150;53.514;9.988;2024-02-21T00:24:28;19.70;;;10.67;;
14139;SDS011;7150;53.514;9.988;2024-02-21T00:26:54;20.27;;;10.97;;
14139;SDS011;7150;53.514;9.988;2024-02-21T00:29:19;24.33;;;12.40;;
14139;SDS011;7150;53.514;9.988;2024-02-21T00:31:45;21.30;;;12.00;;
14139;SDS011;7150;53.514;9.988;2024-02-21T00:34:10;24.97;;;12.47;;
14139;SDS011;7150;53.514;9.988;2024-02-21T00:36:37;19.07;;;11.03;;
14139;SDS011;7150;53.514;9.988;2024-02-21T00:39:03;25.43;;;13.40;;
14139;SDS011;7150;53.514;9.988;2024-02-21T00:41:29;21.90;;;12.33;;
14139;SDS011;7150;53.514;9.988;2024-02-21T00:43:54;27.80;;;13.20;;
14139;SDS011;7150;53.514;9.988;2024-02-21T00:46:20;22.57;;;13.60;;
14139;SDS011;7150;53.514;9.988;2024-02-21T00:48:45;24.10;;;13.00;;
14139;SDS011;7150;53.514;9.988;2024-02-21T00:51:11;21.50;;;12.67;;
14139;SDS011;7150;53.514;9.988;2024-02-21T00:53:36;26.07;;;13.20;;
14139;SDS011;7150;53.514;9.988;2024-02-21T00:56:03;28.07;;;13.73;;
14139;SDS011;7150;53.514;9.988;2024-02-21T00:58:32;26.67;;;13.53;;
14139;SDS011;7150;53.514;9.988;2024-02-21T01:00:57;28.17;;;15.67;;
14139;SDS011;7150;53.514;9.988;2024-02-21T01:03:23;28.23;;;14.17;;
14139;SDS011;7150;53.514;9.988;2024-02-21T01:05:48;29.63;;;15.47;;
14139;SDS011;7150;53.514;9.988;2024-02-21T01:08:14;29.17;;;15.40;;
14139;SDS011;7150;53.514;9.988;2024-02-21T01:10:39;26.97;;;15.73;;
14139;SDS011;7150;53.514;9.988;2024-02-21T01:13:05;27.93;;;14.60;;
14139;SDS011;7150;53.514;9.988;2024-02-21T01:15:32;29.93;;;16.00;;
14139;SDS011;7150;53.514;9.988;2024-02-21T01:17:58;29.83;;;16.17;;
14139;SDS011;7150;53.514;9.988;2024-02-21T01:20:23;31.27;;;15.97;;
14139;SDS011;7150;53.514;9.988;2024-02-21T01:22:49;31.40;;;15.80;;
14139;SDS011;7150;53.514;9.988;2024-02-21T01:25:14;25.13;;;14.97;;
14139;SDS011;7150;53.514;9.988;2024-02-21T01:27:40;25.73;;;15.73;;
14139;SDS011;7150;53.514;9.988;2024-02-21T01:30:05;31.13;;;15.93;;
14139;SDS011;7150;53.514;9.988;2024-02-21T01:32:32;27.60;;;15.43;;
14139;SDS011;7150;53.514;9.988;2024-02-21T01:34:57;24.13;;;14.03;;
14139;SDS011;7150;53.514;9.988;2024-02-21T01:37:23;24.67;;;14.63;;
14139;SDS011;7150;53.514;9.988;2024-02-21T01:39:48;25.97;;;15.67;;
14139;SDS011;7150;53.514;9.988;2024-02-21T01:42:14;25.40;;;15.33;;
14139;SDS011;7150;53.514;9.988;2024-02-21T01:44:40;23.43;;;14.37;;
14139;SDS011;7150;53.514;9.988;2024-02-21T01:47:06;28.43;;;15.93;;
14139;SDS011;7150;53.514;9.988;2024-02-21T01:49:32;27.03;;;15.53;;
14139;SDS011;7150;53.514;9.988;2024-02-21T01:51:58;29.73;;;15.60;;
14139;SDS011;7150;53.514;9.988;2024-02-21T01:54:24;27.97;;;15.00;;
14139;SDS011;7150;53.514;9.988;2024-02-21T01:56:50;26.93;;;15.50;;
14139;SDS011;7150;53.514;9.988;2024-02-21T01:59:17;25.07;;;15.83;;
14139;SDS011;7150;53.514;9.988;2024-02-21T02:01:44;28.70;;;16.07;;
14139;SDS011;7150;53.514;9.988;2024-02-21T02:04:11;24.77;;;14.77;;
14139;SDS011;7150;53.514;9.988;2024-02-21T02:06:37;28.03;;;14.87;;
14139;SDS011;7150;53.514;9.988;2024-02-21T02:09:02;26.50;;;13.90;;
14139;SDS011;7150;53.514;9.988;2024-02-21T02:11:28;23.73;;;13.93;;
14139;SDS011;7150;53.514;9.988;2024-02-21T02:13:53;26.00;;;15.47;;
14139;SDS011;7150;53.514;9.988;2024-02-21T02:16:19;28.13;;;16.43;;
14139;SDS011;7150;53.514;9.988;2024-02-21T02:18:44;24.53;;;15.00;;
14139;SDS011;7150;53.514;9.988;2024-02-21T02:21:10;27.37;;;15.77;;
14139;SDS011;7150;53.514;9.988;2024-02-21T02:23:46;28.17;;;15.63;;
14139;SDS011;7150;53.514;9.988;2024-02-21T02:26:12;26.60;;;16.13;;
14139;SDS011;7150;53.514;9.988;2024-02-21T02:28:37;28.47;;;15.57;;
14139;SDS011;7150;53.514;9.988;2024-02-21T02:31:03;26.33;;;15.63;;
14139;SDS011;7150;53.514;9.988;2024-02-21T02:33:28;24.80;;;14.60;;
14139;SDS011;7150;53.514;9.988;2024-02-21T02:35:54;23.63;;;14.40;;
14139;SDS011;7150;53.514;9.988;2024-02-21T02:38:19;29.30;;;15.40;;
14139;SDS011;7150;53.514;9.988;2024-02-21T02:40:45;27.63;;;16.67;;
14139;SDS011;7150;53.514;9.988;2024-02-21T02:43:10;25.47;;;15.17;;
14139;SDS011;7150;53.514;9.988;2024-02-21T02:45:36;24.27;;;15.17;;
14139;SDS011;7150;53.514;9.988;2024-02-21T02:48:01;29.73;;;17.47;;
14139;SDS011;7150;53.514;9.988;2024-02-21T02:50:27;30.77;;;17.63;;
14139;SDS011;7150;53.514;9.988;2024-02-21T02:52:53;25.80;;;15.67;;
14139;SDS011;7150;53.514;9.988;2024-02-21T02:55:19;28.90;;;16.33;;
14139;SDS011;7150;53.514;9.988;2024-02-21T02:57:44;28.37;;;16.07;;
14139;SDS011;7150;53.514;9.988;2024-02-21T03:00:11;29.90;;;17.23;;
14139;SDS011;7150;53.514;9.988;2024-02-21T03:02:37;26.07;;;15.77;;
14139;SDS011;7150;53.514;9.988;2024-02-21T03:05:11;27.03;;;16.73;;
14139;SDS011;7150;53.514;9.988;2024-02-21T03:07:38;24.97;;;16.03;;
14139;SDS011;7150;53.514;9.988;2024-02-21T03:10:04;28.50;;;16.67;;
14139;SDS011;7150;53.514;9.988;2024-02-21T03:12:29;28.90;;;17.03;;
14139;SDS011;7150;53.514;9.988;2024-02-21T03:14:55;35.03;;;17.37;;
14139;SDS011;7150;53.514;9.988;2024-02-21T03:17:21;32.90;;;18.10;;
14139;SDS011;7150;53.514;9.988;2024-02-21T03:19:46;30.63;;;16.70;;
14139;SDS011;7150;53.514;9.988;2024-02-21T03:22:13;27.40;;;15.20;;
14139;SDS011;7150;53.514;9.988;2024-02-21T03:24:39;30.63;;;16.70;;
14139;SDS011;7150;53.514;9.988;2024-02-21T03:27:04;33.20;;;16.97;;
14139;SDS011;7150;53.514;9.988;2024-02-21T03:29:29;31.03;;;16.83;;
14139;SDS011;7150;53.514;9.988;2024-02-21T03:31:55;35.40;;;17.07;;
14139;SDS011;7150;53.514;9.988;2024-02-21T03:34:20;37.13;;;17.43;;
14139;SDS011;7150;53.514;9.988;2024-02-21T03:36:46;37.60;;;17.87;;
14139;SDS011;7150;53.514;9.988;2024-02-21T03:39:11;31.13;;;16.17;;
14139;SDS011;7150;53.514;9.988;2024-02-21T03:41:37;34.43;;;17.07;;
14139;SDS011;7150;53.514;9.988;2024-02-21T03:44:02;28.60;;;15.90;;
14139;SDS011;7150;53.514;9.988;2024-02-21T03:46:28;32.70;;;16.60;;
14139;SDS011;7150;53.514;9.988;2024-02-21T03:48:53;29.07;;;15.50;;
14139;SDS011;7150;53.514;9.988;2024-02-21T03:51:19;26.33;;;16.17;;
14139;SDS011;7150;53.514;9.988;2024-02-21T03:53:44;28.87;;;16.00;;
14139;SDS011;7150;53.514;9.988;2024-02-21T03:56:10;29.03;;;16.17;;
14139;SDS011;7150;53.514;9.988;2024-02-21T03:58:35;28.23;;;16.43;;
14139;SDS011;7150;53.514;9.988;2024-02-21T04:01:01;31.30;;;16.27;;
14139;SDS011;7150;53.514;9.988;2024-02-21T04:03:27;30.23;;;15.90;;
14139;SDS011;7150;53.514;9.988;2024-02-21T04:05:53;25.57;;;16.23;;
14139;SDS011;7150;53.514;9.988;2024-02-21T04:08:18;28.73;;;15.33;;
14139;SDS011;7150;53.514;9.988;2024-02-21T04:10:44;29.43;;;16.20;;
14139;SDS011;7150;53.514;9.988;2024-02-21T04:13:09;29.07;;;15.27;;
14139;SDS011;7150;53.514;9.988;2024-02-21T04:15:35;35.60;;;15.97;;
14139;SDS011;7150;53.514;9.988;2024-02-21T04:18:01;30.83;;;16.33;;
14139;SDS011;7150;53.514;9.988;2024-02-21T04:20:28;28.60;;;16.47;;
14139;SDS011;7150;53.514;9.988;2024-02-21T04:22:53;24.27;;;15.60;;
14139;SDS011;7150;53.514;9.988;2024-02-21T04:25:19;26.93;;;15.80;;
14139;SDS011;7150;53.514;9.988;2024-02-21T04:27:45;32.27;;;16.27;;
14139;SDS011;7150;53.514;9.988;2024-02-21T04:30:11;29.63;;;15.17;;
14139;SDS011;7150;53.514;9.988;2024-02-21T04:32:37;22.83;;;14.50;;
14139;SDS011;7150;53.514;9.988;2024-02-21T04:35:02;28.23;;;16.73;;
14139;SDS011;7150;53.514;9.988;2024-02-21T04:37:28;26.03;;;15.90;;
14139;SDS011;7150;53.514;9.988;2024-02-21T04:39:54;26.57;;;14.77;;
14139;SDS011;7150;53.514;9.988;2024-02-21T04:42:19;28.03;;;15.23;;
14139;SDS011;7150;53.514;9.988;2024-02-21T04:44:44;27.07;;;15.70;;
14139;SDS011;7150;53.514;9.988;2024-02-21T04:47:10;27.17;;;15.87;;
14139;SDS011;7150;53.514;9.988;2024-02-21T04:49:35;27.47;;;15.60;;
14139;SDS011;7150;53.514;9.988;2024-02-21T04:52:01;23.63;;;14.40;;
14139;SDS011;7150;53.514;9.988;2024-02-21T04:54:27;26.70;;;15.03;;
14139;SDS011;7150;53.514;9.988;2024-02-21T04:56:52;25.87;;;14.73;;
14139;SDS011;7150;53.514;9.988;2024-02-21T04:59:18;25.03;;;14.73;;
14139;SDS011;7150;53.514;9.988;2024-02-21T05:01:43;25.07;;;14.40;;
14139;SDS011;7150;53.514;9.988;2024-02-21T05:04:09;23.80;;;14.13;;
14139;SDS011;7150;53.514;9.988;2024-02-21T05:06:38;22.37;;;14.53;;
14139;SDS011;7150;53.514;9.988;2024-02-21T05:09:04;23.07;;;13.40;;
14139;SDS011;7150;53.514;9.988;2024-02-21T05:11:30;25.87;;;14.33;;
14139;SDS011;7150;53.514;9.988;2024-02-21T05:13:56;22.67;;;12.97;;
14139;SDS011;7150;53.514;9.988;2024-02-21T05:16:21;25.37;;;15.57;;
14139;SDS011;7150;53.514;9.988;2024-02-21T05:18:47;25.23;;;14.53;;
14139;SDS011;7150;53.514;9.988;2024-02-21T05:21:12;21.40;;;14.23;;
14139;SDS011;7150;53.514;9.988;2024-02-21T05:23:38;23.20;;;13.80;;
14139;SDS011;7150;53.514;9.988;2024-02-21T05:26:04;20.73;;;13.53;;
14139;SDS011;7150;53.514;9.988;2024-02-21T05:28:30;21.13;;;13.10;;
14139;SDS011;7150;53.514;9.988;2024-02-21T05:30:56;24.33;;;14.17;;
14139;SDS011;7150;53.514;9.988;2024-02-21T05:33:21;18.23;;;12.97;;
14139;SDS011;7150;53.514;9.988;2024-02-21T05:35:47;18.87;;;13.13;;
14139;SDS011;7150;53.514;9.988;2024-02-21T05:38:13;18.23;;;13.17;;
14139;SDS011;7150;53.514;9.988;2024-02-21T05:40:39;18.97;;;12.77;;
14139;SDS011;7150;53.514;9.988;2024-02-21T05:43:05;18.83;;;12.40;;
14139;SDS011;7150;53.514;9.988;2024-02-21T05:45:32;17.03;;;12.30;;
14139;SDS011;7150;53.514;9.988;2024-02-21T05:47:57;19.90;;;13.17;;
14139;SDS011;7150;53.514;9.988;2024-02-21T05:50:23;20.83;;;12.07;;
14139;SDS011;7150;53.514;9.988;2024-02-21T05:52:50;18.70;;;11.90;;
14139;SDS011;7150;53.514;9.988;2024-02-21T05:55:16;19.33;;;12.03;;
14139;SDS011;7150;53.514;9.988;2024-02-21T05:57:42;20.87;;;12.73;;
14139;SDS011;7150;53.514;9.988;2024-02-21T06:00:07;22.90;;;11.43;;
14139;SDS011;7150;53.514;9.988;2024-02-21T06:02:33;16.20;;;11.20;;
14139;SDS011;7150;53.514;9.988;2024-02-21T06:04:59;16.90;;;11.27;;
14139;SDS011;7150;53.514;9.988;2024-02-21T06:07:24;17.03;;;10.27;;
14139;SDS011;7150;53.514;9.988;2024-02-21T06:09:50;14.93;;;10.27;;
14139;SDS011;7150;53.514;9.988;2024-02-21T06:12:15;16.57;;;10.50;;
14139;SDS011;7150;53.514;9.988;2024-02-21T06:14:41;15.33;;;10.17;;
14139;SDS011;7150;53.514;9.988;2024-02-21T06:17:06;14.87;;;10.40;;
14139;SDS011;7150;53.514;9.988;2024-02-21T06:19:32;15.00;;;9.73;;
14139;SDS011;7150;53.514;9.988;2024-02-21T06:21:57;12.50;;;9.40;;
14139;SDS011;7150;53.514;9.988;2024-02-21T06:24:22;15.97;;;9.43;;
14139;SDS011;7150;53.514;9.988;2024-02-21T06:26:48;14.40;;;9.00;;
14139;SDS011;7150;53.514;9.988;2024-02-21T06:29:13;15.80;;;9.20;;
14139;SDS011;7150;53.514;9.988;2024-02-21T06:31:40;13.30;;;8.47;;
14139;SDS011;7150;53.514;9.988;2024-02-21T06:34:05;12.10;;;8.23;;
14139;SDS011;7150;53.514;9.988;2024-02-21T06:36:31;13.87;;;9.37;;
14139;SDS011;7150;53.514;9.988;2024-02-21T06:38:56;11.67;;;8.90;;
14139;SDS011;7150;53.514;9.988;2024-02-21T06:41:23;13.23;;;8.83;;
14139;SDS011;7150;53.514;9.988;2024-02-21T06:43:49;11.73;;;8.57;;
14139;SDS011;7150;53.514;9.988;2024-02-21T06:46:24;12.03;;;8.20;;
14139;SDS011;7150;53.514;9.988;2024-02-21T06:48:54;10.97;;;7.93;;
14139;SDS011;7150;53.514;9.988;2024-02-21T06:51:21;13.87;;;8.50;;
14139;SDS011;7150;53.514;9.988;2024-02-21T06:53:47;13.53;;;9.00;;
14139;SDS011;7150;53.514;9.988;2024-02-21T06:56:12;11.03;;;8.10;;
14139;SDS011;7150;53.514;9.988;2024-02-21T06:58:38;12.67;;;8.93;;
14139;SDS011;7150;53.514;9.988;2024-02-21T07:01:03;14.73;;;8.20;;
14139;SDS011;7150;53.514;9.988;2024-02-21T07:03:29;12.20;;;8.20;;
14139;SDS011;7150;53.514;9.988;2024-02-21T07:05:54;10.73;;;8.40;;
14139;SDS011;7150;53.514;9.988;2024-02-21T07:08:20;10.63;;;7.87;;
14139;SDS011;7150;53.514;9.988;2024-02-21T07:10:46;12.53;;;8.30;;
14139;SDS011;7150;53.514;9.988;2024-02-21T07:13:12;13.13;;;8.20;;
14139;SDS011;7150;53.514;9.988;2024-02-21T07:15:38;11.30;;;8.03;;
14139;SDS011;7150;53.514;9.988;2024-02-21T07:18:03;10.83;;;7.53;;
14139;SDS011;7150;53.514;9.988;2024-02-21T07:20:29;9.93;;;7.17;;
14139;SDS011;7150;53.514;9.988;2024-02-21T07:22:54;10.87;;;7.17;;
14139;SDS011;7150;53.514;9.988;2024-02-21T07:25:20;11.60;;;7.70;;
14139;SDS011;7150;53.514;9.988;2024-02-21T07:27:45;10.07;;;7.97;;
14139;SDS011;7150;53.514;9.988;2024-02-21T07:30:11;11.50;;;8.10;;
14139;SDS011;7150;53.514;9.988;2024-02-21T07:32:37;11.37;;;8.13;;
14139;SDS011;7150;53.514;9.988;2024-02-21T07:35:02;11.87;;;8.27;;
14139;SDS011;7150;53.514;9.988;2024-02-21T07:37:28;11.60;;;7.53;;
14139;SDS011;7150;53.514;9.988;2024-02-21T07:39:54;10.97;;;7.87;;
14139;SDS011;7150;53.514;9.988;2024-02-21T07:42:19;11.37;;;8.30;;
14139;SDS011;7150;53.514;9.988;2024-02-21T07:44:45;10.07;;;7.30;;
14139;SDS011;7150;53.514;9.988;2024-02-21T07:47:10;10.10;;;7.63;;
14139;SDS011;7150;53.514;9.988;2024-02-21T07:49:43;10.40;;;7.43;;
14139;SDS011;7150;53.514;9.988;2024-02-21T07:52:09;10.37;;;7.40;;
14139;SDS011;7150;53.514;9.988;2024-02-21T07:54:35;11.47;;;7.87;;
14139;SDS011;7150;53.514;9.988;2024-02-21T07:57:00;11.73;;;7.77;;
14139;SDS011;7150;53.514;9.988;2024-02-21T07:59:26;10.80;;;7.20;;
14139;SDS011;7150;53.514;9.988;2024-02-21T08:01:51;8.40;;;6.97;;
14139;SDS011;7150;53.514;9.988;2024-02-21T08:04:20;9.37;;;6.73;;
14139;SDS011;7150;53.514;9.988;2024-02-21T08:06:46;8.83;;;6.60;;
14139;SDS011;7150;53.514;9.988;2024-02-21T08:09:18;8.03;;;6.67;;
14139;SDS011;7150;53.514;9.988;2024-02-21T08:11:43;8.17;;;6.23;;
14139;SDS011;7150;53.514;9.988;2024-02-21T08:14:09;8.23;;;6.40;;
14139;SDS011;7150;53.514;9.988;2024-02-21T08:16:34;8.47;;;5.93;;
14139;SDS011;7150;53.514;9.988;2024-02-21T08:19:00;6.37;;;5.10;;
14139;SDS011;7150;53.514;9.988;2024-02-21T08:21:28;6.67;;;5.33;;
14139;SDS011;7150;53.514;9.988;2024-02-21T08:23:54;6.03;;;4.63;;
14139;SDS011;7150;53.514;9.988;2024-02-21T08:26:20;8.23;;;5.57;;
14139;SDS011;7150;53.514;9.988;2024-02-21T08:28:45;6.87;;;4.50;;
14139;SDS011;7150;53.514;9.988;2024-02-21T08:31:11;6.80;;;4.20;;
14139;SDS011;7150;53.514;9.988;2024-02-21T08:33:43;5.57;;;3.40;;
14139;SDS011;7150;53.514;9.988;2024-02-21T08:36:09;4.97;;;3.17;;
14139;SDS011;7150;53.514;9.988;2024-02-21T08:38:41;3.87;;;2.87;;
14139;SDS011;7150;53.514;9.988;2024-02-21T08:41:07;4.07;;;2.93;;
14139;SDS011;7150;53.514;9.988;2024-02-21T08:43:32;5.57;;;2.87;;
14139;SDS011;7150;53.514;9.988;2024-02-21T08:45:59;6.70;;;3.03;;
14139;SDS011;7150;53.514;9.988;2024-02-21T08:48:25;8.13;;;2.77;;
14139;SDS011;7150;53.514;9.988;2024-02-21T08:50:50;6.93;;;2.80;;
14139;SDS011;7150;53.514;9.988;2024-02-21T08:53:16;8.00;;;2.80;;
14139;SDS011;7150;53.514;9.988;2024-02-21T08:55:41;7.23;;;2.43;;
14139;SDS011;7150;53.514;9.988;2024-02-21T08:58:09;9.07;;;2.33;;
14139;SDS011;7150;53.514;9.988;2024-02-21T09:00:34;4.97;;;2.40;;
14139;SDS011;7150;53.514;9.988;2024-02-21T09:03:00;4.60;;;2.23;;
14139;SDS011;7150;53.514;9.988;2024-02-21T09:05:25;5.37;;;2.40;;
14139;SDS011;7150;53.514;9.988;2024-02-21T09:07:51;7.37;;;2.67;;
14139;SDS011;7150;53.514;9.988;2024-02-21T09:10:16;5.70;;;2.60;;
14139;SDS011;7150;53.514;9.988;2024-02-21T09:12:42;10.33;;;3.03;;
14139;SDS011;7150;53.514;9.988;2024-02-21T09:15:08;8.77;;;2.83;;
14139;SDS011;7150;53.514;9.988;2024-02-21T09:17:35;8.37;;;2.50;;
14139;SDS011;7150;53.514;9.988;2024-02-21T09:20:01;6.60;;;2.67;;
14139;SDS011;7150;53.514;9.988;2024-02-21T09:22:28;6.07;;;2.47;;
14139;SDS011;7150;53.514;9.988;2024-02-21T09:24:54;5.10;;;2.00;;
14139;SDS011;7150;53.514;9.988;2024-02-21T09:27:19;5.23;;;2.37;;
14139;SDS011;7150;53.514;9.988;2024-02-21T09:29:45;7.07;;;2.23;;
14139;SDS011;7150;53.514;9.988;2024-02-21T09:32:10;5.03;;;2.47;;
14139;SDS011;7150;53.514;9.988;2024-02-21T09:34:36;5.53;;;2.50;;
14139;SDS011;7150;53.514;9.988;2024-02-21T09:37:01;4.50;;;2.00;;
14139;SDS011;7150;53.514;9.988;2024-02-21T09:39:27;6.77;;;2.60;;
14139;SDS011;7150;53.514;9.988;2024-02-21T09:41:53;7.13;;;2.73;;
14139;SDS011;7150;53.514;9.988;2024-02-21T09:44:24;5.87;;;2.37;;
14139;SDS011;7150;53.514;9.988;2024-02-21T09:46:57;3.43;;;2.40;;
14139;SDS011;7150;53.514;9.988;2024-02-21T09:49:31;5.23;;;2.50;;
14139;SDS011;7150;53.514;9.988;2024-02-21T09:51:58;3.80;;;2.30;;
14139;SDS011;7150;53.514;9.988;2024-02-21T09:54:28;3.77;;;2.83;;
14139;SDS011;7150;53.514;9.988;2024-02-21T09:56:55;6.20;;;3.30;;
14139;SDS011;7150;53.514;9.988;2024-02-21T09:59:22;5.30;;;3.63;;
14139;SDS011;7150;53.514;9.988;2024-02-21T10:01:48;5.63;;;3.60;;
14139;SDS011;7150;53.514;9.988;2024-02-21T10:04:15;5.60;;;4.13;;
14139;SDS011;7150;53.514;9.988;2024-02-21T10:06:41;7.00;;;5.40;;
14139;SDS011;7150;53.514;9.988;2024-02-21T10:09:06;8.87;;;5.77;;
14139;SDS011;7150;53.514;9.988;2024-02-21T10:11:32;9.90;;;6.80;;
14139;SDS011;7150;53.514;9.988;2024-02-21T10:14:05;10.97;;;7.80;;
14139;SDS011;7150;53.514;9.988;2024-02-21T10:16:31;10.50;;;7.13;;
14139;SDS011;7150;53.514;9.988;2024-02-21T10:18:57;11.00;;;7.33;;
14139;SDS011;7150;53.514;9.988;2024-02-21T10:21:22;10.80;;;7.70;;
14139;SDS011;7150;53.514;9.988;2024-02-21T10:23:48;12.80;;;8.17;;
14139;SDS011;7150;53.514;9.988;2024-02-21T10:26:15;15.80;;;9.40;;
14139;SDS011;7150;53.514;9.988;2024-02-21T10:28:42;13.40;;;8.90;;
14139;SDS011;7150;53.514;9.988;2024-02-21T10:31:10;18.63;;;10.60;;
14139;SDS011;7150;53.514;9.988;2024-02-21T10:33:36;16.57;;;9.80;;
14139;SDS011;7150;53.514;9.988;2024-02-21T10:36:06;15.50;;;9.30;;
14139;SDS011;7150;53.514;9.988;2024-02-21T10:38:33;13.53;;;9.23;;
14139;SDS011;7150;53.514;9.988;2024-02-21T10:40:58;18.77;;;9.80;;
14139;SDS011;7150;53.514;9.988;2024-02-21T10:43:28;14.27;;;10.10;;
14139;SDS011;7150;53.514;9.988;2024-02-21T10:45:59;12.17;;;8.87;;
14139;SDS011;7150;53.514;9.988;2024-02-21T10:48:29;18.47;;;11.03;;
14139;SDS011;7150;53.514;9.988;2024-02-21T10:51:08;16.23;;;10.80;;
14139;SDS011;7150;53.514;9.988;2024-02-21T10:56:49;20.57;;;10.43;;
14139;SDS011;7150;53.514;9.988;2024-02-21T10:59:16;15.47;;;10.20;;
14139;SDS011;7150;53.514;9.988;2024-02-21T11:01:43;16.93;;;9.23;;
14139;SDS011;7150;53.514;9.988;2024-02-21T11:04:08;12.53;;;9.07;;
14139;SDS011;7150;53.514;9.988;2024-02-21T11:06:37;16.40;;;9.37;;
14139;SDS011;7150;53.514;9.988;2024-02-21T11:09:08;17.33;;;9.27;;
14139;SDS011;7150;53.514;9.988;2024-02-21T11:14:17;16.07;;;9.30;;
14139;SDS011;7150;53.514;9.988;2024-02-21T11:16:44;12.43;;;7.83;;
14139;SDS011;7150;53.514;9.988;2024-02-21T11:19:18;12.43;;;7.90;;
14139;SDS011;7150;53.514;9.988;2024-02-21T11:21:46;16.23;;;8.60;;
14139;SDS011;7150;53.514;9.988;2024-02-21T11:24:13;10.53;;;7.93;;
14139;SDS011;7150;53.514;9.988;2024-02-21T11:26:39;12.73;;;8.53;;
14139;SDS011;7150;53.514;9.988;2024-02-21T11:29:07;16.53;;;8.63;;
14139;SDS011;7150;53.514;9.988;2024-02-21T11:31:38;13.80;;;7.30;;
14139;SDS011;7150;53.514;9.988;2024-02-21T11:34:09;11.83;;;7.67;;
14139;SDS011;7150;53.514;9.988;2024-02-21T11:36:35;13.60;;;7.87;;
14139;SDS011;7150;53.514;9.988;2024-02-21T11:39:04;12.93;;;7.30;;
14139;SDS011;7150;53.514;9.988;2024-02-21T11:41:30;11.57;;;7.63;;
14139;SDS011;7150;53.514;9.988;2024-02-21T11:43:56;11.73;;;7.93;;
14139;SDS011;7150;53.514;9.988;2024-02-21T11:46:22;14.30;;;7.07;;
14139;SDS011;7150;53.514;9.988;2024-02-21T11:48:48;10.33;;;7.30;;
14139;SDS011;7150;53.514;9.988;2024-02-21T11:51:22;10.87;;;7.73;;
14139;SDS011;7150;53.514;9.988;2024-02-21T11:53:50;13.17;;;7.30;;
14139;SDS011;7150;53.514;9.988;2024-02-21T11:56:17;9.57;;;6.67;;
14139;SDS011;7150;53.514;9.988;2024-02-21T11:58:44;9.10;;;6.67;;
14139;SDS011;7150;53.514;9.988;2024-02-21T12:01:11;12.00;;;7.43;;
14139;SDS011;7150;53.514;9.988;2024-02-21T12:03:36;13.33;;;7.47;;
14139;SDS011;7150;53.514;9.988;2024-02-21T12:06:02;10.63;;;6.53;;
14139;SDS011;7150;53.514;9.988;2024-02-21T12:08:40;9.77;;;6.30;;
14139;SDS011;7150;53.514;9.988;2024-02-21T12:11:15;13.60;;;7.20;;
14139;SDS011;7150;53.514;9.988;2024-02-21T12:13:58;11.93;;;7.67;;
14139;SDS011;7150;53.514;9.988;2024-02-21T12:16:25;13.23;;;6.90;;
14139;SDS011;7150;53.514;9.988;2024-02-21T12:18:53;10.33;;;6.70;;
14139;SDS011;7150;53.514;9.988;2024-02-21T12:21:19;12.97;;;7.73;;
14139;SDS011;7150;53.514;9.988;2024-02-21T12:23:44;11.83;;;7.57;;
14139;SDS011;7150;53.514;9.988;2024-02-21T12:26:12;12.17;;;7.07;;
14139;SDS011;7150;53.514;9.988;2024-02-21T12:28:37;11.07;;;7.10;;
14139;SDS011;7150;53.514;9.988;2024-02-21T12:31:03;12.30;;;7.20;;
14139;SDS011;7150;53.514;9.988;2024-02-21T12:33:29;12.30;;;7.07;;
14139;SDS011;7150;53.514;9.988;2024-02-21T12:35:55;11.33;;;7.10;;
14139;SDS011;7150;53.514;9.988;2024-02-21T12:38:20;11.43;;;7.40;;
14139;SDS011;7150;53.514;9.988;2024-02-21T12:40:46;13.90;;;7.90;;
14139;SDS011;7150;53.514;9.988;2024-02-21T12:43:11;12.03;;;7.40;;
14139;SDS011;7150;53.514;9.988;2024-02-21T12:45:37;15.23;;;8.33;;
14139;SDS011;7150;53.514;9.988;2024-02-21T12:48:02;17.00;;;8.70;;
14139;SDS011;7150;53.514;9.988;2024-02-21T12:50:29;15.70;;;7.77;;
14139;SDS011;7150;53.514;9.988;2024-02-21T12:52:56;14.17;;;7.77;;
14139;SDS011;7150;53.514;9.988;2024-02-21T12:55:23;15.57;;;8.57;;
14139;SDS011;7150;53.514;9.988;2024-02-21T12:57:48;13.80;;;8.30;;
14139;SDS011;7150;53.514;9.988;2024-02-21T13:00:14;13.97;;;7.77;;
14139;SDS011;7150;53.514;9.988;2024-02-21T13:02:40;15.23;;;8.07;;
14139;SDS011;7150;53.514;9.988;2024-02-21T13:05:06;16.37;;;7.77;;
14139;SDS011;7150;53.514;9.988;2024-02-21T13:07:32;12.17;;;7.47;;
14139;SDS011;7150;53.514;9.988;2024-02-21T13:09:58;11.67;;;7.07;;
14139;SDS011;7150;53.514;9.988;2024-02-21T13:12:23;11.43;;;8.20;;
14139;SDS011;7150;53.514;9.988;2024-02-21T13:14:51;12.57;;;8.53;;
14139;SDS011;7150;53.514;9.988;2024-02-21T13:17:16;13.60;;;7.87;;
14139;SDS011;7150;53.514;9.988;2024-02-21T13:19:42;15.30;;;7.90;;
14139;SDS011;7150;53.514;9.988;2024-02-21T13:22:07;11.57;;;7.30;;
14139;SDS011;7150;53.514;9.988;2024-02-21T13:24:34;11.50;;;7.33;;
14139;SDS011;7150;53.514;9.988;2024-02-21T13:26:59;11.77;;;7.40;;
14139;SDS011;7150;53.514;9.988;2024-02-21T13:29:24;13.23;;;7.00;;
14139;SDS011;7150;53.514;9.988;2024-02-21T13:31:50;12.73;;;7.43;;
14139;SDS011;7150;53.514;9.988;2024-02-21T13:34:16;12.10;;;7.70;;
14139;SDS011;7150;53.514;9.988;2024-02-21T13:36:42;13.87;;;7.57;;
14139;SDS011;7150;53.514;9.988;2024-02-21T13:39:08;12.83;;;8.13;;
14139;SDS011;7150;53.514;9.988;2024-02-21T13:41:33;11.03;;;6.93;;
14139;SDS011;7150;53.514;9.988;2024-02-21T13:43:59;13.10;;;6.90;;
14139;SDS011;7150;53.514;9.988;2024-02-21T13:46:28;14.17;;;7.43;;
14139;SDS011;7150;53.514;9.988;2024-02-21T13:48:54;12.03;;;6.97;;
14139;SDS011;7150;53.514;9.988;2024-02-21T13:51:32;11.03;;;6.67;;
14139;SDS011;7150;53.514;9.988;2024-02-21T13:53:58;13.27;;;7.03;;
14139;SDS011;7150;53.514;9.988;2024-02-21T13:56:24;9.87;;;6.27;;
14139;SDS011;7150;53.514;9.988;2024-02-21T13:58:50;12.30;;;6.97;;
14139;SDS011;7150;53.514;9.988;2024-02-21T14:01:15;12.80;;;6.93;;
14139;SDS011;7150;53.514;9.988;2024-02-21T14:03:41;12.43;;;7.60;;
14139;SDS011;7150;53.514;9.988;2024-02-21T14:06:06;11.87;;;7.47;;
14139;SDS011;7150;53.514;9.988;2024-02-21T14:08:32;11.77;;;7.03;;
14139;SDS011;7150;53.514;9.988;2024-02-21T14:10:59;10.67;;;6.80;;
14139;SDS011;7150;53.514;9.988;2024-02-21T14:13:25;9.77;;;6.57;;
14139;SDS011;7150;53.514;9.988;2024-02-21T14:15:51;9.60;;;6.73;;
14139;SDS011;7150;53.514;9.988;2024-02-21T14:18:16;13.50;;;6.93;;
14139;SDS011;7150;53.514;9.988;2024-02-21T14:20:42;10.50;;;6.50;;
14139;SDS011;7150;53.514;9.988;2024-02-21T14:23:08;12.17;;;6.97;;
14139;SDS011;7150;53.514;9.988;2024-02-21T14:25:33;11.17;;;6.97;;
14139;SDS011;7150;53.514;9.988;2024-02-21T14:27:59;9.40;;;6.33;;
14139;SDS011;7150;53.514;9.988;2024-02-21T14:30:27;9.60;;;6.00;;
14139;SDS011;7150;53.514;9.988;2024-02-21T14:32:53;9.57;;;5.90;;
14139;SDS011;7150;53.514;9.988;2024-02-21T14:35:18;7.63;;;5.70;;
14139;SDS011;7150;53.514;9.988;2024-02-21T14:37:44;10.00;;;5.97;;
14139;SDS011;7150;53.514;9.988;2024-02-21T14:40:10;9.00;;;5.27;;
14139;SDS011;7150;53.514;9.988;2024-02-21T14:42:36;10.30;;;5.80;;